Time;durP1;ratioP1;P1;durP2;ratioP2;P2;SDS_P1;SDS_P2;PMS_P1;PMS_P2;Temp;Humidity;BMP_temperature;BMP_pressure;BME280_temperature;BME280_humidity;BME280_pressure;Samples;Min_cycle;Max_cycle;Signal;HPM_P1;HPM_P2
2021/03/03 00:01:48;;;;;;;12.63;4.35;;;8.60;76.80;;;;;;5007118;28;20038;-74
2021/03/03 00:04:13;;;;;;;22.50;5.05;;;8.60;76.80;;;;;;4991946;28;20026;-73
2021/03/03 00:06:39;;;;;;;11.43;4.70;;;8.60;76.80;;;;;;4991303;28;20062;-72
2021/03/03 00:09:05;;;;;;;18.02;5.85;;;8.60;76.90;;;;;;5007129;28;20022;-74
2021/03/03 00:11:30;;;;;;;12.75;4.57;;;8.60;76.80;;;;;;4991316;28;20495;-73
2021/03/03 00:13:56;;;;;;;11.02;5.13;;;8.60;76.90;;;;;;4992366;28;20044;-73
2021/03/03 00:16:22;;;;;;;14.00;4.55;;;8.60;76.90;;;;;;4991200;28;20038;-73
2021/03/03 00:18:47;;;;;;;12.18;4.60;;;8.60;76.90;;;;;;4991933;28;20110;-74
2021/03/03 00:21:13;;;;;;;10.40;4.30;;;8.50;76.90;;;;;;4995795;28;20109;-74
2021/03/03 00:23:40;;;;;;;10.48;4.63;;;8.60;77.00;;;;;;4995959;28;20416;-73
2021/03/03 00:26:06;;;;;;;15.55;4.78;;;8.50;76.90;;;;;;4995872;28;20119;-74
2021/03/03 00:28:31;;;;;;;10.73;3.97;;;8.50;76.90;;;;;;4994998;28;20030;-74
2021/03/03 00:30:57;;;;;;;11.98;4.55;;;8.50;77.00;;;;;;5010726;28;20038;-73
2021/03/03 00:33:23;;;;;;;13.25;4.32;;;8.50;77.00;;;;;;4995104;28;20054;-74
2021/03/03 00:35:48;;;;;;;11.38;4.40;;;8.50;77.00;;;;;;4995803;28;20067;-73
2021/03/03 00:38:14;;;;;;;12.02;4.80;;;8.50;77.10;;;;;;5010652;28;20026;-73
2021/03/03 00:40:40;;;;;;;12.15;4.20;;;8.50;77.10;;;;;;4995001;28;20433;-73
2021/03/03 00:43:05;;;;;;;10.32;4.82;;;8.50;77.00;;;;;;4995317;28;20022;-72
2021/03/03 00:45:31;;;;;;;15.05;4.60;;;8.40;77.00;;;;;;4994546;28;20065;-74
2021/03/03 00:47:57;;;;;;;10.75;4.15;;;8.40;77.00;;;;;;4995642;28;20027;-73
2021/03/03 00:50:23;;;;;;;12.95;4.18;;;8.40;77.00;;;;;;4994968;28;20030;-73
2021/03/03 00:52:48;;;;;;;14.30;5.25;;;8.40;77.00;;;;;;4995324;28;20410;-73
2021/03/03 00:55:14;;;;;;;12.05;4.82;;;8.40;77.10;;;;;;4995151;28;20027;-73
2021/03/03 00:57:40;;;;;;;11.98;4.70;;;8.40;77.10;;;;;;4994661;28;20428;-73
2021/03/03 01:00:07;;;;;;;10.63;4.53;;;8.40;77.10;;;;;;4995147;28;20032;-73
2021/03/03 01:02:33;;;;;;;13.73;4.40;;;8.40;77.10;;;;;;4994576;28;20058;-74
2021/03/03 01:04:59;;;;;;;9.98;4.28;;;8.40;77.10;;;;;;4994841;28;20022;-73
2021/03/03 01:07:25;;;;;;;13.20;4.03;;;8.40;77.20;;;;;;4994554;28;20141;-73
2021/03/03 01:09:50;;;;;;;13.48;4.80;;;8.40;77.20;;;;;;4995111;28;20098;-73
2021/03/03 01:12:16;;;;;;;12.10;3.88;;;8.30;77.20;;;;;;4994749;28;20501;-73
2021/03/03 01:14:42;;;;;;;10.30;3.70;;;8.30;77.20;;;;;;4994342;28;20030;-73
2021/03/03 01:17:07;;;;;;;12.40;4.70;;;8.30;77.20;;;;;;4994988;28;20014;-73
2021/03/03 01:19:33;;;;;;;16.05;4.93;;;8.30;77.30;;;;;;4994561;28;20083;-73
2021/03/03 01:21:59;;;;;;;14.32;4.22;;;8.30;77.30;;;;;;4994982;28;20487;-74
2021/03/03 01:24:24;;;;;;;14.38;4.40;;;8.30;77.40;;;;;;4994794;28;20480;-74
2021/03/03 01:26:50;;;;;;;13.93;4.68;;;8.20;77.30;;;;;;4994248;28;20026;-73
2021/03/03 01:29:16;;;;;;;14.48;4.35;;;8.20;77.30;;;;;;4994489;28;20014;-73
2021/03/03 01:31:42;;;;;;;10.40;4.05;;;8.20;77.30;;;;;;4993228;28;20039;-74
2021/03/03 01:34:07;;;;;;;12.00;4.60;;;8.20;77.40;;;;;;4994711;28;20027;-73
2021/03/03 01:36:33;;;;;;;14.18;5.32;;;8.20;77.40;;;;;;4994054;28;20058;-73
2021/03/03 01:38:58;;;;;;;11.07;4.03;;;8.20;77.40;;;;;;4994687;28;20073;-73
2021/03/03 01:41:24;;;;;;;12.15;4.60;;;8.20;77.40;;;;;;4994439;28;20030;-73
2021/03/03 01:43:50;;;;;;;12.02;4.63;;;8.10;77.30;;;;;;4994132;28;20449;-73
2021/03/03 01:46:15;;;;;;;12.20;5.35;;;8.20;77.40;;;;;;5009398;28;20480;-76
2021/03/03 01:48:41;;;;;;;10.02;4.22;;;8.10;77.30;;;;;;4993703;28;20062;-74
2021/03/03 01:51:08;;;;;;;8.52;3.90;;;8.10;77.30;;;;;;5008818;28;20129;-73
2021/03/03 01:53:33;;;;;;;13.13;4.32;;;8.10;77.30;;;;;;5008635;28;20109;-72
2021/03/03 01:55:59;;;;;;;15.55;4.90;;;8.10;77.40;;;;;;4993923;28;20527;-74
2021/03/03 01:58:25;;;;;;;12.52;4.47;;;8.10;77.40;;;;;;4993868;28;20089;-72
2021/03/03 02:00:51;;;;;;;13.15;5.13;;;8.00;77.40;;;;;;4993271;28;20500;-73
2021/03/03 02:03:17;;;;;;;11.95;4.03;;;8.00;77.50;;;;;;4993965;28;20444;-74
2021/03/03 02:05:44;;;;;;;11.48;3.90;;;8.00;77.50;;;;;;4993135;28;20026;-74
2021/03/03 02:08:35;;;;;;;11.80;4.57;;;8.00;77.50;;;;;;4994348;28;20023;-73
2021/03/03 02:11:07;;;;;;;;;;;8.00;77.50;;;;;;4994330;28;20377;-73
2021/03/03 02:13:56;;;;;;;13.52;4.68;;;7.90;77.40;;;;;;4993635;28;19910;-73
2021/03/03 02:16:22;;;;;;;10.13;3.78;;;7.90;77.40;;;;;;5010174;28;20109;-73
2021/03/03 02:18:49;;;;;;;9.40;3.90;;;7.90;77.50;;;;;;4994978;28;20440;-73
2021/03/03 02:21:32;;;;;;;9.63;4.18;;;7.90;77.50;;;;;;4994715;28;20080;-73
2021/03/03 02:24:11;;;;;;;11.25;4.10;;;7.90;77.50;;;;;;5008817;28;20034;-73
2021/03/03 02:26:38;;;;;;;11.68;4.05;;;7.90;77.50;;;;;;4993151;28;20023;-73
2021/03/03 02:29:09;;;;;;;11.98;3.85;;;7.90;77.60;;;;;;4993535;28;20468;-73
2021/03/03 02:31:37;;;;;;;12.70;4.65;;;7.90;77.60;;;;;;4992903;28;20118;-73
2021/03/03 02:34:03;;;;;;;11.57;3.92;;;7.80;77.60;;;;;;4993435;28;20030;-74
2021/03/03 02:36:30;;;;;;;10.50;4.95;;;7.80;77.60;;;;;;4993462;28;20456;-74
2021/03/03 02:38:57;;;;;;;11.82;3.75;;;7.80;77.60;;;;;;4993442;28;20033;-73
2021/03/03 02:41:23;;;;;;;13.80;4.32;;;7.80;77.60;;;;;;4993519;28;20208;-73
2021/03/03 02:43:50;;;;;;;11.07;3.83;;;7.80;77.60;;;;;;4992795;28;20098;-72
2021/03/03 02:46:16;;;;;;;11.02;4.20;;;7.80;77.60;;;;;;4993435;28;20053;-72
2021/03/03 02:48:45;;;;;;;18.55;4.25;;;7.80;77.60;;;;;;5007637;28;20026;-73
2021/03/03 02:51:12;;;;;;;10.50;4.57;;;7.80;77.60;;;;;;4993073;28;20034;-73
2021/03/03 02:53:40;;;;;;;10.02;4.75;;;7.80;77.70;;;;;;4992589;28;20022;-73
2021/03/03 02:56:06;;;;;;;13.75;4.82;;;7.70;77.60;;;;;;4993000;28;20046;-74
2021/03/03 02:58:32;;;;;;;13.13;4.55;;;7.70;77.60;;;;;;4992941;28;20053;-71
2021/03/03 03:01:01;;;;;;;13.75;4.22;;;7.70;77.70;;;;;;5008117;28;20105;-72
2021/03/03 03:03:34;;;;;;;10.43;4.07;;;7.70;77.70;;;;;;4992554;28;20357;-73
2021/03/03 03:06:24;;;;;;;13.43;5.82;;;7.70;77.70;;;;;;4992804;28;20061;-73
2021/03/03 03:08:52;;;;;;;13.38;4.55;;;7.70;77.70;;;;;;5022879;28;20539;-73
2021/03/03 03:11:25;;;;;;;10.90;3.72;;;7.70;77.70;;;;;;5011943;28;20037;-73
2021/03/03 03:13:53;;;;;;;10.55;3.72;;;7.70;77.80;;;;;;5011838;28;20018;-73
2021/03/03 03:16:19;;;;;;;15.13;5.55;;;7.60;77.70;;;;;;5012589;28;20028;-73
2021/03/03 03:18:54;;;;;;;10.02;4.38;;;7.60;77.70;;;;;;5011626;28;20105;-74
2021/03/03 03:21:21;;;;;;;15.38;5.05;;;7.70;77.80;;;;;;5012394;28;20037;-73
2021/03/03 03:23:47;;;;;;;10.50;3.47;;;7.60;77.70;;;;;;5011665;28;20026;-73
2021/03/03 03:26:14;;;;;;;10.25;4.47;;;7.60;77.80;;;;;;5012178;28;20025;-73
2021/03/03 03:28:40;;;;;;;10.95;4.22;;;7.60;77.80;;;;;;5011596;28;20030;-74
2021/03/03 03:31:08;;;;;;;10.27;4.13;;;7.60;77.90;;;;;;5012076;28;20038;-74
2021/03/03 03:33:34;;;;;;;9.80;3.90;;;7.60;77.90;;;;;;5012086;28;20084;-73
2021/03/03 03:36:01;;;;;;;12.13;3.88;;;7.60;77.90;;;;;;5011954;28;20022;-73
2021/03/03 03:38:28;;;;;;;10.55;3.83;;;7.60;77.90;;;;;;5012182;28;20022;-73
2021/03/03 03:40:54;;;;;;;8.98;3.58;;;7.60;77.90;;;;;;5011319;28;20025;-72
2021/03/03 03:43:21;;;;;;;13.35;4.28;;;7.50;77.90;;;;;;5012159;28;20025;-74
2021/03/03 03:45:49;;;;;;;11.65;4.40;;;7.50;77.90;;;;;;5011276;28;20057;-73
2021/03/03 03:48:16;;;;;;;9.25;3.70;;;7.50;77.90;;;;;;5011847;28;20030;-73
2021/03/03 03:50:42;;;;;;;12.23;4.30;;;7.50;77.90;;;;;;5010780;28;20046;-73
2021/03/03 03:53:08;;;;;;;10.77;4.65;;;7.50;77.90;;;;;;5011725;28;20026;-73
2021/03/03 03:55:37;;;;;;;12.07;4.93;;;7.50;78.00;;;;;;5011442;28;20473;-72
2021/03/03 03:58:07;;;;;;;10.13;4.07;;;7.50;77.90;;;;;;5010375;28;20014;-73
2021/03/03 04:00:32;;;;;;;12.25;4.20;;;7.50;78.00;;;;;;5010478;28;20083;-72
2021/03/03 04:02:59;;;;;;;12.48;4.03;;;7.50;78.00;;;;;;5009836;28;20038;-73
2021/03/03 04:05:26;;;;;;;12.63;4.00;;;7.40;78.00;;;;;;5010503;28;20026;-73
2021/03/03 04:07:51;;;;;;;12.38;4.57;;;7.40;77.90;;;;;;5009664;28;20057;-73
2021/03/03 04:10:20;;;;;;;14.52;4.45;;;7.40;77.90;;;;;;5011484;28;20022;-73
2021/03/03 04:12:46;;;;;;;11.95;4.78;;;7.40;78.00;;;;;;5011294;28;20045;-73
2021/03/03 04:15:13;;;;;;;8.43;4.30;;;7.40;78.60;;;;;;5011869;28;20407;-74
2021/03/03 04:17:39;;;;;;;19.38;4.15;;;7.40;78.00;;;;;;5011013;28;20049;-73
2021/03/03 04:20:06;;;;;;;14.20;5.75;;;7.30;78.00;;;;;;5011756;28;20587;-74
2021/03/03 04:22:32;;;;;;;9.52;4.28;;;7.40;78.00;;;;;;5011517;28;20072;-73
2021/03/03 04:24:59;;;;;;;11.32;5.07;;;7.30;77.90;;;;;;5010830;28;20033;-74
2021/03/03 04:27:24;;;;;;;9.65;4.40;;;7.30;77.90;;;;;;5011365;28;20022;-73
2021/03/03 04:29:50;;;;;;;11.68;4.22;;;7.40;78.00;;;;;;5010827;28;20026;-73
2021/03/03 04:32:16;;;;;;;10.82;3.88;;;7.40;78.00;;;;;;5011194;28;20088;-73
2021/03/03 04:34:41;;;;;;;14.32;5.13;;;7.30;77.90;;;;;;5011256;28;20131;-72
2021/03/03 04:37:07;;;;;;;8.73;3.63;;;7.30;77.90;;;;;;5011259;28;20505;-73
2021/03/03 04:39:33;;;;;;;16.73;4.45;;;7.30;77.90;;;;;;5011443;28;20118;-73
2021/03/03 04:41:58;;;;;;;10.32;4.00;;;7.30;77.90;;;;;;5009396;28;20034;-73
2021/03/03 04:44:24;;;;;;;10.82;3.85;;;7.40;77.90;;;;;;5011673;28;20036;-72
2021/03/03 04:46:50;;;;;;;10.25;3.83;;;7.30;77.90;;;;;;5010846;28;20077;-73
2021/03/03 04:49:15;;;;;;;9.00;4.55;;;7.30;77.90;;;;;;5011018;28;20029;-73
2021/03/03 04:51:41;;;;;;;9.90;3.78;;;7.30;77.90;;;;;;5010306;28;20042;-72
2021/03/03 04:54:07;;;;;;;9.63;3.95;;;7.30;78.00;;;;;;5011216;28;20109;-73
2021/03/03 04:56:32;;;;;;;9.50;3.92;;;7.30;78.00;;;;;;5010879;28;20478;-73
2021/03/03 04:58:58;;;;;;;12.40;4.18;;;7.30;78.00;;;;;;5010785;28;20053;-73
2021/03/03 05:01:24;;;;;;;10.90;4.38;;;7.30;78.10;;;;;;5011106;28;20060;-73
2021/03/03 05:03:49;;;;;;;10.48;4.35;;;7.30;78.00;;;;;;5010301;28;20049;-73
2021/03/03 05:06:15;;;;;;;13.43;4.43;;;7.40;78.10;;;;;;5010663;28;20048;-73
2021/03/03 05:08:41;;;;;;;10.77;3.63;;;7.30;78.10;;;;;;5012908;28;20376;-72
2021/03/03 05:11:07;;;;;;;12.02;4.35;;;7.30;78.00;;;;;;5014330;28;20030;-73
2021/03/03 05:13:33;;;;;;;10.48;3.67;;;7.30;78.00;;;;;;5014850;28;20468;-73
2021/03/03 05:15:58;;;;;;;15.38;4.93;;;7.40;78.10;;;;;;5013689;28;20018;-73
2021/03/03 05:18:24;;;;;;;10.43;4.30;;;7.40;78.10;;;;;;5014453;28;20030;-73
2021/03/03 05:20:50;;;;;;;9.27;3.92;;;7.40;78.10;;;;;;5013964;28;20053;-73
2021/03/03 05:23:26;;;;;;;14.60;5.70;;;7.40;78.10;;;;;;5014496;28;20069;-74
2021/03/03 05:25:52;;;;;;;14.00;6.30;;;7.40;78.10;;;;;;5002337;28;20034;-74
2021/03/03 05:28:18;;;;;;;12.80;5.25;;;7.40;78.00;;;;;;5014457;28;20185;-75
2021/03/03 05:30:44;;;;;;;16.17;6.35;;;7.40;78.00;;;;;;5014170;28;20100;-73
2021/03/03 05:33:09;;;;;;;14.35;5.13;;;7.40;78.00;;;;;;5015088;28;20046;-74
2021/03/03 05:35:35;;;;;;;12.40;4.85;;;7.40;78.10;;;;;;5024668;28;20402;-74
2021/03/03 05:38:00;;;;;;;9.10;4.75;;;7.40;78.20;;;;;;5023163;28;20025;-75
2021/03/03 05:40:26;;;;;;;9.98;4.35;;;7.40;78.20;;;;;;5025243;28;20487;-73
2021/03/03 05:42:53;;;;;;;11.93;4.13;;;7.40;78.30;;;;;;5032013;28;20115;-72
2021/03/03 05:45:19;;;;;;;12.82;5.43;;;7.30;78.20;;;;;;5033845;28;20018;-73
2021/03/03 05:47:47;;;;;;;12.07;4.53;;;7.30;78.30;;;;;;5033549;28;20017;-73
2021/03/03 05:50:16;;;;;;;14.35;4.65;;;7.30;78.30;;;;;;5033733;28;20483;-74
2021/03/03 05:52:42;;;;;;;19.42;4.95;;;7.30;78.40;;;;;;5033246;28;20041;-74
2021/03/03 05:55:08;;;;;;;12.07;4.03;;;7.30;78.40;;;;;;5032797;28;20053;-74
2021/03/03 05:57:35;;;;;;;11.75;4.78;;;7.30;78.50;;;;;;5033663;28;20026;-73
2021/03/03 06:00:03;;;;;;;10.40;4.45;;;7.30;78.50;;;;;;5031484;28;20044;-74
2021/03/03 06:02:29;;;;;;;12.45;4.30;;;7.20;78.50;;;;;;5033823;28;20053;-74
2021/03/03 06:04:55;;;;;;;13.25;4.15;;;7.20;78.50;;;;;;5032405;28;20471;-74
2021/03/03 06:07:21;;;;;;;16.20;5.03;;;7.20;78.50;;;;;;5033475;28;20046;-74
2021/03/03 06:09:48;;;;;;;16.30;5.18;;;7.20;78.50;;;;;;5032941;28;20014;-72
2021/03/03 06:12:13;;;;;;;12.13;4.57;;;7.30;78.60;;;;;;5033349;28;20087;-74
2021/03/03 06:14:40;;;;;;;14.77;4.93;;;7.20;78.50;;;;;;5031768;28;20018;-74
2021/03/03 06:17:06;;;;;;;11.38;4.38;;;7.30;78.60;;;;;;5032622;28;20116;-76
2021/03/03 06:19:33;;;;;;;12.88;4.57;;;7.30;78.60;;;;;;5030736;28;20040;-76
2021/03/03 06:22:31;;;;;;;12.52;4.78;;;7.30;78.50;;;;;;5030166;28;20033;-76
2021/03/03 06:24:57;;;;;;;17.17;5.13;;;7.30;78.40;;;;;;5017564;28;20041;-74
2021/03/03 06:27:24;;;;;;;8.82;4.10;;;7.30;78.50;;;;;;5031065;28;20117;-75
2021/03/03 06:30:08;;;;;;;16.48;4.47;;;7.30;78.50;;;;;;5030039;28;20091;-77
2021/03/03 06:32:53;;;;;;;10.38;3.63;;;7.30;78.40;;;;;;5028816;28;20026;-75
2021/03/03 06:35:20;;;;;;;14.52;4.70;;;7.30;78.40;;;;;;5030947;28;20093;-74
2021/03/03 06:37:55;;;;;;;18.95;6.78;;;7.30;78.40;;;;;;5032637;28;20055;-73
2021/03/03 06:40:21;;;;;;;11.40;4.53;;;7.30;78.40;;;;;;5032026;28;20416;-74
2021/03/03 06:42:46;;;;;;;11.98;4.82;;;7.30;78.40;;;;;;5032063;28;20026;-75
2021/03/03 06:45:28;;;;;;;10.30;4.35;;;7.30;78.50;;;;;;5032106;28;20029;-74
2021/03/03 06:47:55;;;;;;;13.82;5.20;;;7.40;78.50;;;;;;5031951;28;20471;-74
2021/03/03 06:50:21;;;;;;;15.02;5.20;;;7.40;78.50;;;;;;5031130;28;20383;-74
2021/03/03 06:52:47;;;;;;;11.60;4.18;;;7.40;78.40;;;;;;5032095;28;20057;-74
2021/03/03 06:55:13;;;;;;;16.88;4.80;;;7.40;78.40;;;;;;5031591;28;20028;-75
2021/03/03 06:57:39;;;;;;;12.80;4.47;;;7.40;78.40;;;;;;5031150;28;20014;-75
2021/03/03 07:00:09;;;;;;;13.60;5.03;;;7.40;78.40;;;;;;5031722;28;20471;-75
2021/03/03 07:02:37;;;;;;;15.63;5.18;;;7.40;78.40;;;;;;5032478;28;20037;-74
2021/03/03 07:05:03;;;;;;;11.18;5.03;;;7.50;78.40;;;;;;5030413;28;20033;-73
2021/03/03 07:07:28;;;;;;;12.13;4.70;;;7.50;78.40;;;;;;5030421;28;20045;-75
2021/03/03 07:09:59;;;;;;;15.05;5.65;;;7.50;78.30;;;;;;5031298;28;20029;-74
2021/03/03 07:12:28;;;;;;;16.33;5.00;;;7.50;78.30;;;;;;5030787;28;20025;-75
2021/03/03 07:15:04;;;;;;;14.95;4.60;;;7.50;78.30;;;;;;5030113;28;20455;-72
2021/03/03 07:17:41;;;;;;;11.40;4.18;;;7.60;78.40;;;;;;5031865;28;20042;-74
2021/03/03 07:20:14;;;;;;;16.33;5.80;;;7.60;78.40;;;;;;5031055;28;20017;-74
2021/03/03 07:22:41;;;;;;;13.30;5.30;;;7.60;78.30;;;;;;5031762;28;20124;-73
2021/03/03 07:25:12;;;;;;;19.35;5.38;;;7.60;78.30;;;;;;5030792;28;20101;-74
2021/03/03 07:27:40;;;;;;;12.35;4.32;;;7.70;78.30;;;;;;5031948;28;20029;-74
2021/03/03 07:30:08;;;;;;;9.85;4.32;;;7.80;78.30;;;;;;5030638;28;20140;-75
2021/03/03 07:32:34;;;;;;;17.20;5.50;;;7.80;78.20;;;;;;5031995;28;20215;-74
2021/03/03 07:35:00;;;;;;;14.93;4.78;;;7.90;78.10;;;;;;5031083;28;20104;-74
2021/03/03 07:37:33;;;;;;;18.63;5.57;;;8.00;77.90;;;;;;5031600;28;20029;-74
2021/03/03 07:40:03;;;;;;;12.30;5.15;;;8.10;77.90;;;;;;5031004;28;20044;-73
2021/03/03 07:42:30;;;;;;;15.27;5.47;;;8.10;77.80;;;;;;5032010;28;20085;-73
2021/03/03 07:44:59;;;;;;;15.68;5.85;;;8.20;77.70;;;;;;5030816;28;20510;-74
2021/03/03 07:47:35;;;;;;;15.32;4.63;;;8.30;77.60;;;;;;5031517;28;20436;-74
2021/03/03 07:50:12;;;;;;;14.25;5.53;;;8.30;77.50;;;;;;5030995;28;20061;-73
2021/03/03 07:52:42;;;;;;;23.60;5.95;;;8.40;78.10;;;;;;5031125;28;20029;-74
2021/03/03 07:55:08;;;;;;;14.75;5.45;;;8.40;77.40;;;;;;5030680;28;20083;-74
2021/03/03 07:57:35;;;;;;;11.10;5.45;;;8.40;77.40;;;;;;5031663;28;20025;-74
2021/03/03 08:00:11;;;;;;;16.58;5.55;;;8.50;77.40;;;;;;5031073;28;20379;-75
2021/03/03 08:02:49;;;;;;;14.60;5.47;;;8.60;77.30;;;;;;5032125;28;20033;-75
2021/03/03 08:05:31;;;;;;;20.55;7.55;;;8.60;77.20;;;;;;5030765;28;20025;-75
2021/03/03 08:08:33;;;;;;;;;;;8.70;77.10;;;;;;5029578;28;20057;-73
2021/03/03 08:10:59;;;;;;;15.90;6.30;;;8.60;77.00;;;;;;5031047;28;19912;-74
2021/03/03 08:13:30;;;;;;;14.40;6.35;;;8.80;76.90;;;;;;5031905;28;20025;-75
2021/03/03 08:15:57;;;;;;;;;;;8.80;76.70;;;;;;5031430;28;20367;-73
2021/03/03 08:18:27;;;;;;;19.92;6.55;;;8.80;76.70;;;;;;5031555;28;19912;-74
2021/03/03 08:21:24;;;;;;;16.52;6.85;;;8.90;76.60;;;;;;5031553;28;20080;-74
2021/03/03 08:24:00;;;;;;;14.80;6.18;;;8.90;76.50;;;;;;5031328;28;20029;-74
2021/03/03 08:26:33;;;;;;;12.82;5.95;;;8.90;76.60;;;;;;5031687;28;20521;-74
2021/03/03 08:29:11;;;;;;;16.38;7.38;;;9.00;76.70;;;;;;5029254;28;20032;-74
2021/03/03 08:31:39;;;;;;;21.30;7.28;;;9.00;76.70;;;;;;5031052;28;20040;-74
2021/03/03 08:34:07;;;;;;;16.48;8.65;;;9.00;76.60;;;;;;5029127;28;20368;-74
2021/03/03 08:36:34;;;;;;;16.38;7.53;;;9.10;76.70;;;;;;5031052;28;20510;-75
2021/03/03 08:39:00;;;;;;;18.05;7.70;;;9.10;76.70;;;;;;5028984;28;20443;-72
2021/03/03 08:41:25;;;;;;;15.45;6.97;;;9.10;76.70;;;;;;5032540;28;20033;-74
2021/03/03 08:44:05;;;;;;;18.65;7.30;;;9.20;76.70;;;;;;5034871;28;20052;-74
2021/03/03 08:46:31;;;;;;;19.02;7.35;;;9.30;77.20;;;;;;5033723;28;20025;-74
2021/03/03 08:48:57;;;;;;;18.88;7.55;;;9.20;76.60;;;;;;5034439;28;20404;-75
2021/03/03 08:51:30;;;;;;;18.52;7.88;;;9.20;77.30;;;;;;5034144;28;20037;-75
2021/03/03 08:53:57;;;;;;;19.50;7.50;;;9.20;76.80;;;;;;5034759;28;20076;-75
2021/03/03 08:56:44;;;;;;;19.73;7.70;;;9.30;76.80;;;;;;5033634;28;20041;-74
2021/03/03 08:59:29;;;;;;;12.95;6.28;;;9.40;76.80;;;;;;5033895;28;20033;-73
2021/03/03 09:02:13;;;;;;;30.70;8.50;;;9.40;76.80;;;;;;5034556;28;20026;-74
2021/03/03 09:04:38;;;;;;;18.50;7.78;;;9.40;76.80;;;;;;5034695;28;20022;-74
2021/03/03 09:07:17;;;;;;;19.30;8.20;;;9.40;76.70;;;;;;5033669;28;20049;-74
2021/03/03 09:09:46;;;;;;;25.55;9.32;;;9.40;76.80;;;;;;5034359;28;20026;-74
2021/03/03 09:12:15;;;;;;;23.23;8.93;;;9.40;76.80;;;;;;5033709;28;20056;-73
2021/03/03 09:14:42;;;;;;;19.52;7.82;;;9.40;76.80;;;;;;5033967;28;20536;-74
2021/03/03 09:17:10;;;;;;;21.05;9.27;;;9.50;76.80;;;;;;5033590;28;20075;-74
2021/03/03 09:19:37;;;;;;;22.80;8.40;;;9.50;76.80;;;;;;5034396;28;20028;-74
2021/03/03 09:22:18;;;;;;;27.25;9.88;;;9.60;76.80;;;;;;5033627;28;20033;-74
2021/03/03 09:25:03;;;;;;;24.52;9.63;;;9.60;76.60;;;;;;5034102;28;20481;-73
2021/03/03 09:27:28;;;;;;;25.70;8.45;;;9.70;76.60;;;;;;5032783;28;20033;-74
2021/03/03 09:29:56;;;;;;;17.38;7.80;;;9.70;76.50;;;;;;5033906;28;20025;-75
2021/03/03 09:32:25;;;;;;;19.60;8.50;;;9.80;76.40;;;;;;5033456;28;20064;-74
2021/03/03 09:34:55;;;;;;;22.98;8.48;;;9.80;76.40;;;;;;5033737;28;20052;-73
2021/03/03 09:37:22;;;;;;;19.55;8.18;;;9.90;76.50;;;;;;5033567;28;20075;-74
2021/03/03 09:39:58;;;;;;;19.83;7.78;;;9.90;76.30;;;;;;5033861;28;20025;-75
2021/03/03 09:42:26;;;;;;;17.55;7.70;;;10.00;76.40;;;;;;5033214;28;20030;-75
2021/03/03 09:44:57;;;;;;;19.08;8.13;;;10.00;76.40;;;;;;5033875;28;20029;-75
2021/03/03 09:47:34;;;;;;;25.20;8.98;;;10.00;76.30;;;;;;5033104;28;20671;-74
2021/03/03 09:50:03;;;;;;;18.42;8.88;;;10.10;76.30;;;;;;5033636;28;20478;-75
2021/03/03 09:52:39;;;;;;;15.65;7.70;;;10.10;76.30;;;;;;5033162;28;20038;-75
2021/03/03 09:55:09;;;;;;;16.08;7.30;;;10.20;76.30;;;;;;5032745;28;20026;-74
2021/03/03 09:57:35;;;;;;;21.63;8.13;;;10.30;76.20;;;;;;5033459;28;20128;-74
2021/03/03 10:00:01;;;;;;;20.67;7.45;;;10.30;76.20;;;;;;5033397;28;20030;-75
2021/03/03 10:02:29;;;;;;;22.40;9.18;;;10.40;76.10;;;;;;5032883;28;20108;-73
2021/03/03 10:04:58;;;;;;;18.55;6.97;;;10.40;76.00;;;;;;5032943;28;20426;-74
2021/03/03 10:07:26;;;;;;;18.88;8.38;;;10.50;76.00;;;;;;5032110;28;20048;-74
2021/03/03 10:09:56;;;;;;;18.30;6.88;;;10.60;75.90;;;;;;5032990;28;20083;-75
2021/03/03 10:12:40;;;;;;;21.33;8.25;;;10.70;75.80;;;;;;5032632;28;20034;-74
2021/03/03 10:15:15;;;;;;;16.92;7.22;;;10.80;75.60;;;;;;5032861;28;20435;-74
2021/03/03 10:17:54;;;;;;;23.52;8.40;;;10.80;75.50;;;;;;5033157;28;20099;-75
2021/03/03 10:20:41;;;;;;;22.05;7.72;;;10.90;75.40;;;;;;5032184;28;20496;-74
2021/03/03 10:23:11;;;;;;;21.67;7.88;;;11.00;75.20;;;;;;5031188;28;20029;-74
2021/03/03 10:25:44;;;;;;;18.90;8.13;;;11.10;75.20;;;;;;5031404;28;20026;-75
2021/03/03 10:28:16;;;;;;;22.42;8.52;;;11.10;75.00;;;;;;5032117;28;20032;-74
2021/03/03 10:30:48;;;;;;;23.75;10.18;;;11.20;75.00;;;;;;5031626;28;20112;-74
2021/03/03 10:33:34;;;;;;;18.80;8.27;;;11.20;75.00;;;;;;5032284;28;20395;-76
2021/03/03 10:36:16;;;;;;;20.33;8.15;;;11.30;74.80;;;;;;5032707;28;20029;-74
2021/03/03 10:38:53;;;;;;;18.55;8.45;;;11.40;74.70;;;;;;5032870;28;20024;-75
2021/03/03 10:41:31;;;;;;;20.73;8.80;;;11.50;74.50;;;;;;5030881;28;20036;-75
2021/03/03 10:43:57;;;;;;;19.70;7.15;;;11.60;74.30;;;;;;5032699;28;20024;-74
2021/03/03 10:46:25;;;;;;;18.75;7.82;;;11.70;74.20;;;;;;5031967;28;20037;-75
2021/03/03 10:48:51;;;;;;;22.70;8.82;;;11.80;74.00;;;;;;5032477;28;20022;-74
2021/03/03 10:51:19;;;;;;;24.73;8.60;;;11.80;73.90;;;;;;5032132;28;20025;-74
2021/03/03 10:53:49;;;;;;;19.50;8.43;;;11.90;73.80;;;;;;5032519;28;20021;-75
2021/03/03 10:56:40;;;;;;;20.20;7.82;;;12.00;73.60;;;;;;5031877;28;20112;-73
2021/03/03 10:59:24;;;;;;;23.58;10.13;;;12.10;73.40;;;;;;5028161;28;20069;-75
2021/03/03 11:01:55;;;;;;;21.92;8.82;;;12.10;73.20;;;;;;5032695;28;20033;-75
2021/03/03 11:04:21;;;;;;;22.45;9.55;;;12.20;73.20;;;;;;5031083;28;20022;-74
2021/03/03 11:06:46;;;;;;;24.15;8.27;;;12.40;73.10;;;;;;5031634;28;20103;-74
2021/03/03 11:09:18;;;;;;;26.20;8.68;;;12.50;72.90;;;;;;5031682;28;20022;-72
2021/03/03 11:11:51;;;;;;;20.63;8.70;;;12.60;72.70;;;;;;5030949;28;20029;-74
2021/03/03 11:14:18;;;;;;;15.77;7.82;;;12.70;72.40;;;;;;5031484;28;20471;-75
2021/03/03 11:16:45;;;;;;;24.02;10.05;;;12.80;72.30;;;;;;5032020;28;20513;-75
2021/03/03 11:19:11;;;;;;;28.33;10.63;;;12.90;72.30;;;;;;5031527;28;20028;-74
2021/03/03 11:21:36;;;;;;;22.20;8.35;;;13.00;72.30;;;;;;5032128;28;20060;-75
2021/03/03 11:24:02;;;;;;;18.10;9.25;;;13.00;72.20;;;;;;5030695;28;20160;-74
2021/03/03 11:26:28;;;;;;;16.05;8.73;;;13.10;72.70;;;;;;5031160;28;20021;-74
2021/03/03 11:28:54;;;;;;;20.30;9.50;;;13.10;72.20;;;;;;5030551;28;20033;-74
2021/03/03 11:31:19;;;;;;;25.50;10.27;;;13.10;72.20;;;;;;5030962;28;20029;-74
2021/03/03 11:33:45;;;;;;;29.65;11.13;;;13.10;72.30;;;;;;5032032;28;20134;-75
2021/03/03 11:36:12;;;;;;;26.55;10.55;;;13.20;72.30;;;;;;5030362;28;20093;-74
2021/03/03 11:38:37;;;;;;;22.83;10.68;;;13.30;72.10;;;;;;5030066;28;20079;-74
2021/03/03 11:41:03;;;;;;;21.27;10.50;;;13.30;72.00;;;;;;5031590;28;20415;-74
2021/03/03 11:43:29;;;;;;;27.55;11.32;;;13.40;71.80;;;;;;5030911;28;20028;-73
2021/03/03 11:45:55;;;;;;;24.98;10.55;;;13.40;71.80;;;;;;5030061;28;20021;-74
2021/03/03 11:48:22;;;;;;;25.92;10.48;;;13.50;71.80;;;;;;5030722;28;20057;-74
2021/03/03 11:50:47;;;;;;;22.52;10.77;;;13.60;71.80;;;;;;5031436;28;20022;-75
2021/03/03 11:53:13;;;;;;;27.75;9.95;;;13.60;71.50;;;;;;5029867;28;20047;-71
2021/03/03 11:55:39;;;;;;;21.73;8.75;;;13.70;71.40;;;;;;5031984;28;20026;-75
2021/03/03 11:58:05;;;;;;;25.13;10.27;;;13.80;71.30;;;;;;5031548;28;20052;-74
2021/03/03 12:00:30;;;;;;;27.23;11.93;;;13.90;71.10;;;;;;5031390;28;20096;-74
2021/03/03 12:02:56;;;;;;;30.17;11.48;;;14.00;71.00;;;;;;5031555;28;20432;-75
2021/03/03 12:05:23;;;;;;;28.15;10.68;;;14.20;70.80;;;;;;5030779;28;20383;-73
2021/03/03 12:07:49;;;;;;;23.88;10.32;;;14.30;70.50;;;;;;5029941;28;20038;-75
2021/03/03 12:10:15;;;;;;;26.83;11.10;;;14.30;71.00;;;;;;5029378;28;20340;-74
2021/03/03 12:12:41;;;;;;;25.70;11.13;;;14.40;70.10;;;;;;5031037;28;20472;-75
2021/03/03 12:15:09;;;;;;;33.63;12.63;;;14.40;69.90;;;;;;5031217;28;20344;-75
2021/03/03 12:17:35;;;;;;;26.65;12.50;;;14.40;69.40;;;;;;5033838;28;20517;-73
2021/03/03 12:20:02;;;;;;;31.55;13.23;;;14.50;69.50;;;;;;5035242;28;20451;-74
2021/03/03 12:22:28;;;;;;;30.80;12.27;;;14.50;69.00;;;;;;5034256;28;20019;-75
2021/03/03 12:24:53;;;;;;;30.52;12.27;;;14.50;68.60;;;;;;5035167;28;20047;-75
2021/03/03 12:27:19;;;;;;;25.20;10.73;;;14.50;68.50;;;;;;5034413;28;20104;-73
2021/03/03 12:29:45;;;;;;;29.85;13.63;;;14.60;68.80;;;;;;5035282;28;20471;-75
2021/03/03 12:32:11;;;;;;;28.17;12.00;;;14.60;68.50;;;;;;5035020;28;20037;-75
2021/03/03 12:34:36;;;;;;;30.45;10.88;;;14.70;68.30;;;;;;5034803;28;20353;-74
2021/03/03 12:37:02;;;;;;;31.27;12.80;;;14.70;68.20;;;;;;5034884;28;20105;-74
2021/03/03 12:39:28;;;;;;;31.70;12.80;;;14.70;68.10;;;;;;5034504;28;20025;-74
2021/03/03 12:41:54;;;;;;;31.88;13.45;;;14.70;67.80;;;;;;5034932;28;20029;-74
2021/03/03 12:44:19;;;;;;;27.30;12.05;;;14.70;67.30;;;;;;5034448;28;20029;-73
2021/03/03 12:46:45;;;;;;;27.60;11.65;;;14.70;66.90;;;;;;5034813;28;20018;-75
2021/03/03 12:49:11;;;;;;;28.05;10.98;;;14.70;66.90;;;;;;5033659;28;20108;-75
2021/03/03 12:51:37;;;;;;;22.02;10.70;;;14.70;67.00;;;;;;5033964;28;20192;-74
2021/03/03 12:54:03;;;;;;;30.55;12.02;;;14.70;67.00;;;;;;5034778;28;20076;-74